sensor_id;sensor_type;location;lat;lon;timestamp;pressure;altitude;pressure_sealevel;temperature;humidity
17711;BME280;8975;57.718;12.134;2023-02-11T00:00:04;115940.22;;;-142.68;71.89
17711;BME280;8975;57.718;12.134;2023-02-11T00:02:31;115940.22;;;-142.68;71.44
17711;BME280;8975;57.718;12.134;2023-02-11T00:04:57;115940.22;;;-142.68;71.57
17711;BME280;8975;57.718;12.134;2023-02-11T00:07:23;115940.22;;;-142.68;71.78
17711;BME280;8975;57.718;12.134;2023-02-11T00:09:49;115940.22;;;-142.68;72.33
17711;BME280;8975;57.718;12.134;2023-02-11T00:12:14;115940.22;;;-142.68;71.77
17711;BME280;8975;57.718;12.134;2023-02-11T00:14:43;115940.22;;;-142.68;72.60
17711;BME280;8975;57.718;12.134;2023-02-11T00:17:09;115940.22;;;-142.68;71.80
17711;BME280;8975;57.718;12.134;2023-02-11T00:19:34;115940.22;;;-142.68;72.35
17711;BME280;8975;57.718;12.134;2023-02-11T00:22:00;115940.22;;;-142.68;72.76
17711;BME280;8975;57.718;12.134;2023-02-11T00:24:25;115940.22;;;-142.68;72.89
17711;BME280;8975;57.718;12.134;2023-02-11T00:26:50;115940.22;;;-142.68;71.58
17711;BME280;8975;57.718;12.134;2023-02-11T00:29:16;115940.22;;;-142.68;70.40
17711;BME280;8975;57.718;12.134;2023-02-11T00:31:41;115940.22;;;-142.68;72.27
17711;BME280;8975;57.718;12.134;2023-02-11T00:34:07;115940.22;;;-142.68;72.41
17711;BME280;8975;57.718;12.134;2023-02-11T00:36:32;115940.22;;;-142.68;70.15
17711;BME280;8975;57.718;12.134;2023-02-11T00:38:58;115940.22;;;-142.68;71.21
17711;BME280;8975;57.718;12.134;2023-02-11T00:41:24;115940.22;;;-142.68;73.07
17711;BME280;8975;57.718;12.134;2023-02-11T00:43:50;115940.22;;;-142.68;71.74
17711;BME280;8975;57.718;12.134;2023-02-11T00:46:15;115940.22;;;-142.68;72.20
17711;BME280;8975;57.718;12.134;2023-02-11T00:48:41;115940.22;;;-142.68;71.27
17711;BME280;8975;57.718;12.134;2023-02-11T00:51:07;115940.22;;;-142.68;71.05
17711;BME280;8975;57.718;12.134;2023-02-11T00:53:33;115940.22;;;-142.68;68.65
17711;BME280;8975;57.718;12.134;2023-02-11T00:55:59;115940.22;;;-142.68;70.44
17711;BME280;8975;57.718;12.134;2023-02-11T00:58:25;115940.22;;;-142.68;70.08
17711;BME280;8975;57.718;12.134;2023-02-11T01:00:52;115940.22;;;-142.68;70.09
17711;BME280;8975;57.718;12.134;2023-02-11T01:03:18;115940.22;;;-142.68;69.29
17711;BME280;8975;57.718;12.134;2023-02-11T01:05:43;115940.22;;;-142.68;70.70
17711;BME280;8975;57.718;12.134;2023-02-11T01:08:09;115940.22;;;-142.68;71.63
17711;BME280;8975;57.718;12.134;2023-02-11T01:10:34;115940.22;;;-142.68;71.98
17711;BME280;8975;57.718;12.134;2023-02-11T01:13:00;115940.22;;;-142.68;71.05
17711;BME280;8975;57.718;12.134;2023-02-11T01:15:26;115940.22;;;-142.68;70.99
17711;BME280;8975;57.718;12.134;2023-02-11T01:17:51;115940.22;;;-142.68;71.45
17711;BME280;8975;57.718;12.134;2023-02-11T01:20:20;115940.22;;;-142.68;71.49
17711;BME280;8975;57.718;12.134;2023-02-11T01:22:46;115940.22;;;-142.68;70.03
17711;BME280;8975;57.718;12.134;2023-02-11T01:25:12;115940.22;;;-142.68;70.37
17711;BME280;8975;57.718;12.134;2023-02-11T01:27:38;115940.22;;;-142.68;70.90
17711;BME280;8975;57.718;12.134;2023-02-11T01:30:05;115940.22;;;-142.68;70.69
17711;BME280;8975;57.718;12.134;2023-02-11T01:32:32;115940.22;;;-142.68;69.43
17711;BME280;8975;57.718;12.134;2023-02-11T01:34:57;115940.22;;;-142.68;70.88
17711;BME280;8975;57.718;12.134;2023-02-11T01:37:22;115940.22;;;-142.68;70.35
17711;BME280;8975;57.718;12.134;2023-02-11T01:39:48;115940.22;;;-142.68;70.67
17711;BME280;8975;57.718;12.134;2023-02-11T01:42:20;115940.22;;;-142.68;70.88
17711;BME280;8975;57.718;12.134;2023-02-11T01:44:51;115940.22;;;-142.68;70.00
17711;BME280;8975;57.718;12.134;2023-02-11T01:47:19;115940.22;;;-142.68;70.15
17711;BME280;8975;57.718;12.134;2023-02-11T01:49:48;115940.22;;;-142.68;69.95
17711;BME280;8975;57.718;12.134;2023-02-11T01:52:26;115940.22;;;-142.68;70.38
17711;BME280;8975;57.718;12.134;2023-02-11T01:55:03;115940.22;;;-142.68;68.17
17711;BME280;8975;57.718;12.134;2023-02-11T01:57:53;115940.22;;;-142.68;70.00
17711;BME280;8975;57.718;12.134;2023-02-11T02:00:25;115940.22;;;-142.68;69.90
17711;BME280;8975;57.718;12.134;2023-02-11T02:03:14;115940.22;;;-142.68;70.77
17711;BME280;8975;57.718;12.134;2023-02-11T02:08:30;115940.22;;;-142.68;71.49
17711;BME280;8975;57.718;12.134;2023-02-11T02:10:59;115940.22;;;-142.68;71.34
17711;BME280;8975;57.718;12.134;2023-02-11T02:13:27;115940.22;;;-142.68;69.17
17711;BME280;8975;57.718;12.134;2023-02-11T02:15:58;115940.22;;;-142.68;71.01
17711;BME280;8975;57.718;12.134;2023-02-11T02:19:08;115940.22;;;-142.68;71.96
17711;BME280;8975;57.718;12.134;2023-02-11T02:27:35;115940.22;;;-142.68;71.77
17711;BME280;8975;57.718;12.134;2023-02-11T02:38:49;115940.22;;;-142.68;71.53
17711;BME280;8975;57.718;12.134;2023-02-11T02:41:20;115940.22;;;-142.68;71.36
17711;BME280;8975;57.718;12.134;2023-02-11T02:43:49;115940.22;;;-142.68;71.65
17711;BME280;8975;57.718;12.134;2023-02-11T02:46:21;115940.22;;;-142.68;71.31
17711;BME280;8975;57.718;12.134;2023-02-11T02:48:48;115940.22;;;-142.68;71.47
17711;BME280;8975;57.718;12.134;2023-02-11T02:56:49;115940.22;;;-142.68;69.82
17711;BME280;8975;57.718;12.134;2023-02-11T02:59:27;115940.22;;;-142.68;71.12
17711;BME280;8975;57.718;12.134;2023-02-11T03:02:11;115940.22;;;-142.68;71.25
17711;BME280;8975;57.718;12.134;2023-02-11T03:10:30;115940.22;;;-142.68;71.42
17711;BME280;8975;57.718;12.134;2023-02-11T03:12:57;115940.22;;;-142.68;70.88
17711;BME280;8975;57.718;12.134;2023-02-11T03:15:26;115940.22;;;-142.68;72.44
17711;BME280;8975;57.718;12.134;2023-02-11T03:17:57;115940.22;;;-142.68;72.65
17711;BME280;8975;57.718;12.134;2023-02-11T03:20:26;115940.22;;;-142.68;73.19
17711;BME280;8975;57.718;12.134;2023-02-11T03:23:10;115940.22;;;-142.68;73.61
17711;BME280;8975;57.718;12.134;2023-02-11T03:25:47;115940.22;;;-142.68;73.74
17711;BME280;8975;57.718;12.134;2023-02-11T03:28:34;115940.22;;;-142.68;72.10
17711;BME280;8975;57.718;12.134;2023-02-11T03:33:39;115940.22;;;-142.68;71.79
17711;BME280;8975;57.718;12.134;2023-02-11T03:36:14;115940.22;;;-142.68;71.48
17711;BME280;8975;57.718;12.134;2023-02-11T03:38:46;115940.22;;;-142.68;71.42
17711;BME280;8975;57.718;12.134;2023-02-11T03:41:13;115940.22;;;-142.68;71.00
17711;BME280;8975;57.718;12.134;2023-02-11T03:43:49;115940.22;;;-142.68;70.67
17711;BME280;8975;57.718;12.134;2023-02-11T03:46:18;115940.22;;;-142.68;69.85
17711;BME280;8975;57.718;12.134;2023-02-11T03:48:48;115940.22;;;-142.68;70.97
17711;BME280;8975;57.718;12.134;2023-02-11T03:51:15;115940.22;;;-142.68;70.66
17711;BME280;8975;57.718;12.134;2023-02-11T03:53:43;115940.22;;;-142.68;70.49
17711;BME280;8975;57.718;12.134;2023-02-11T03:56:13;115940.22;;;-142.68;70.97
17711;BME280;8975;57.718;12.134;2023-02-11T03:58:39;115940.22;;;-142.68;70.59
17711;BME280;8975;57.718;12.134;2023-02-11T04:01:05;115940.22;;;-142.68;70.06
17711;BME280;8975;57.718;12.134;2023-02-11T04:03:33;115940.22;;;-142.68;71.68
17711;BME280;8975;57.718;12.134;2023-02-11T04:05:59;115940.22;;;-142.68;71.49
17711;BME280;8975;57.718;12.134;2023-02-11T04:08:24;115940.22;;;-142.68;70.89
17711;BME280;8975;57.718;12.134;2023-02-11T04:10:50;115940.22;;;-142.68;70.38
17711;BME280;8975;57.718;12.134;2023-02-11T04:13:15;115940.22;;;-142.68;70.62
17711;BME280;8975;57.718;12.134;2023-02-11T04:15:41;115940.22;;;-142.68;69.89
17711;BME280;8975;57.718;12.134;2023-02-11T04:18:06;115940.22;;;-142.68;69.60
17711;BME280;8975;57.718;12.134;2023-02-11T04:20:31;115940.22;;;-142.68;69.57
17711;BME280;8975;57.718;12.134;2023-02-11T04:22:57;115940.22;;;-142.68;70.25
17711;BME280;8975;57.718;12.134;2023-02-11T04:25:22;115940.22;;;-142.68;71.33
17711;BME280;8975;57.718;12.134;2023-02-11T04:27:48;115940.22;;;-142.68;69.85
17711;BME280;8975;57.718;12.134;2023-02-11T04:30:13;115940.22;;;-142.68;68.33
17711;BME280;8975;57.718;12.134;2023-02-11T04:32:39;115940.22;;;-142.68;68.99
17711;BME280;8975;57.718;12.134;2023-02-11T04:35:05;115940.22;;;-142.68;69.10
17711;BME280;8975;57.718;12.134;2023-02-11T04:37:30;115940.22;;;-142.68;69.20
17711;BME280;8975;57.718;12.134;2023-02-11T04:39:55;115940.22;;;-142.68;69.74
17711;BME280;8975;57.718;12.134;2023-02-11T04:42:21;115940.22;;;-142.68;68.89
17711;BME280;8975;57.718;12.134;2023-02-11T04:44:46;115940.22;;;-142.68;67.85
17711;BME280;8975;57.718;12.134;2023-02-11T04:47:12;115940.22;;;-142.68;67.95
17711;BME280;8975;57.718;12.134;2023-02-11T04:49:39;115940.22;;;-142.68;66.43
17711;BME280;8975;57.718;12.134;2023-02-11T04:52:05;115940.22;;;-142.68;66.58
17711;BME280;8975;57.718;12.134;2023-02-11T04:54:31;115940.22;;;-142.68;66.48
17711;BME280;8975;57.718;12.134;2023-02-11T04:56:56;115940.22;;;-142.68;66.20
17711;BME280;8975;57.718;12.134;2023-02-11T04:59:21;115940.22;;;-142.68;66.84
17711;BME280;8975;57.718;12.134;2023-02-11T05:01:47;115940.22;;;-142.68;67.16
17711;BME280;8975;57.718;12.134;2023-02-11T05:04:13;115940.22;;;-142.68;66.99
17711;BME280;8975;57.718;12.134;2023-02-11T05:06:39;115940.22;;;-142.68;68.30
17711;BME280;8975;57.718;12.134;2023-02-11T05:09:04;115940.22;;;-142.68;68.16
17711;BME280;8975;57.718;12.134;2023-02-11T05:11:30;115940.22;;;-142.68;66.82
17711;BME280;8975;57.718;12.134;2023-02-11T05:13:55;115940.22;;;-142.68;67.63
17711;BME280;8975;57.718;12.134;2023-02-11T05:16:21;115940.22;;;-142.68;67.54
17711;BME280;8975;57.718;12.134;2023-02-11T05:18:46;115940.22;;;-142.68;66.84
17711;BME280;8975;57.718;12.134;2023-02-11T05:21:14;115940.22;;;-142.68;66.99
17711;BME280;8975;57.718;12.134;2023-02-11T05:23:40;115940.22;;;-142.68;66.69
17711;BME280;8975;57.718;12.134;2023-02-11T05:26:07;115940.22;;;-142.68;66.34
17711;BME280;8975;57.718;12.134;2023-02-11T05:28:32;115940.22;;;-142.68;66.41
17711;BME280;8975;57.718;12.134;2023-02-11T05:31:00;115940.22;;;-142.68;66.79
17711;BME280;8975;57.718;12.134;2023-02-11T05:33:26;115940.22;;;-142.68;67.23
17711;BME280;8975;57.718;12.134;2023-02-11T05:35:51;115940.22;;;-142.68;66.91
17711;BME280;8975;57.718;12.134;2023-02-11T05:38:17;115940.22;;;-142.68;67.34
17711;BME280;8975;57.718;12.134;2023-02-11T05:40:42;115940.22;;;-142.68;67.63
17711;BME280;8975;57.718;12.134;2023-02-11T05:43:08;115940.22;;;-142.68;67.15
17711;BME280;8975;57.718;12.134;2023-02-11T05:45:33;115940.22;;;-142.68;67.18
17711;BME280;8975;57.718;12.134;2023-02-11T05:47:59;115940.22;;;-142.68;67.02
17711;BME280;8975;57.718;12.134;2023-02-11T05:50:25;115940.22;;;-142.68;66.69
17711;BME280;8975;57.718;12.134;2023-02-11T05:52:51;115940.22;;;-142.68;65.54
17711;BME280;8975;57.718;12.134;2023-02-11T05:55:16;115940.22;;;-142.68;66.94
17711;BME280;8975;57.718;12.134;2023-02-11T05:57:42;115940.22;;;-142.68;65.89
17711;BME280;8975;57.718;12.134;2023-02-11T06:00:08;115940.22;;;-142.68;66.80
17711;BME280;8975;57.718;12.134;2023-02-11T06:02:34;115940.22;;;-142.68;65.91
17711;BME280;8975;57.718;12.134;2023-02-11T06:05:00;115940.22;;;-142.68;67.05
17711;BME280;8975;57.718;12.134;2023-02-11T06:07:25;115940.22;;;-142.68;67.23
17711;BME280;8975;57.718;12.134;2023-02-11T06:09:51;115940.22;;;-142.68;66.73
17711;BME280;8975;57.718;12.134;2023-02-11T06:12:16;115940.22;;;-142.68;66.54
17711;BME280;8975;57.718;12.134;2023-02-11T06:14:42;115940.22;;;-142.68;66.48
17711;BME280;8975;57.718;12.134;2023-02-11T06:17:07;115940.22;;;-142.68;65.50
17711;BME280;8975;57.718;12.134;2023-02-11T06:19:32;115940.22;;;-142.68;65.32
17711;BME280;8975;57.718;12.134;2023-02-11T06:21:58;115940.22;;;-142.68;65.78
17711;BME280;8975;57.718;12.134;2023-02-11T06:24:23;115940.22;;;-142.68;66.93
17711;BME280;8975;57.718;12.134;2023-02-11T06:26:49;115940.22;;;-142.68;66.92
17711;BME280;8975;57.718;12.134;2023-02-11T06:29:15;115940.22;;;-142.68;65.88
17711;BME280;8975;57.718;12.134;2023-02-11T06:31:40;115940.22;;;-142.68;65.22
17711;BME280;8975;57.718;12.134;2023-02-11T06:34:09;115940.22;;;-142.68;65.63
17711;BME280;8975;57.718;12.134;2023-02-11T06:36:34;115940.22;;;-142.68;64.75
17711;BME280;8975;57.718;12.134;2023-02-11T06:39:00;115940.22;;;-142.68;65.44
17711;BME280;8975;57.718;12.134;2023-02-11T06:41:25;115940.22;;;-142.68;65.21
17711;BME280;8975;57.718;12.134;2023-02-11T06:43:51;115940.22;;;-142.68;64.74
17711;BME280;8975;57.718;12.134;2023-02-11T06:46:17;115940.22;;;-142.68;66.41
17711;BME280;8975;57.718;12.134;2023-02-11T06:48:42;115940.22;;;-142.68;66.29
17711;BME280;8975;57.718;12.134;2023-02-11T06:51:10;115940.22;;;-142.68;67.31
17711;BME280;8975;57.718;12.134;2023-02-11T06:53:42;115940.22;;;-142.68;66.49
17711;BME280;8975;57.718;12.134;2023-02-11T06:56:10;115940.22;;;-142.68;65.85
17711;BME280;8975;57.718;12.134;2023-02-11T06:58:37;115940.22;;;-142.68;65.40
17711;BME280;8975;57.718;12.134;2023-02-11T07:01:06;115940.22;;;-142.68;66.07
17711;BME280;8975;57.718;12.134;2023-02-11T07:03:37;115940.22;;;-142.68;66.05
17711;BME280;8975;57.718;12.134;2023-02-11T07:06:03;115940.22;;;-142.68;66.02
17711;BME280;8975;57.718;12.134;2023-02-11T07:08:33;115940.22;;;-142.68;64.52
17711;BME280;8975;57.718;12.134;2023-02-11T07:10:58;115940.22;;;-142.68;64.45
17711;BME280;8975;57.718;12.134;2023-02-11T07:13:24;115940.22;;;-142.68;64.69
17711;BME280;8975;57.718;12.134;2023-02-11T07:15:49;115940.22;;;-142.68;65.19
17711;BME280;8975;57.718;12.134;2023-02-11T07:18:15;115940.22;;;-142.68;65.61
17711;BME280;8975;57.718;12.134;2023-02-11T07:20:40;115940.22;;;-142.68;65.30
17711;BME280;8975;57.718;12.134;2023-02-11T07:23:06;115940.22;;;-142.68;65.56
17711;BME280;8975;57.718;12.134;2023-02-11T07:25:32;115940.22;;;-142.68;65.68
17711;BME280;8975;57.718;12.134;2023-02-11T07:27:59;115940.22;;;-142.68;64.43
17711;BME280;8975;57.718;12.134;2023-02-11T07:30:24;115940.22;;;-142.68;64.65
17711;BME280;8975;57.718;12.134;2023-02-11T07:32:50;115940.22;;;-142.68;64.53
17711;BME280;8975;57.718;12.134;2023-02-11T07:35:15;115940.22;;;-142.68;64.34
17711;BME280;8975;57.718;12.134;2023-02-11T07:37:40;115940.22;;;-142.68;63.49
17711;BME280;8975;57.718;12.134;2023-02-11T07:40:07;115940.22;;;-142.68;63.79
